sensor_id;sensor_type;location;lat;lon;timestamp;temperature;humidity
15983;DHT22;14442;50.196;8.096;2023-08-06T00:00:22;20.80;65.70
15983;DHT22;14442;50.196;8.096;2023-08-06T00:02:49;20.80;65.70
15983;DHT22;14442;50.196;8.096;2023-08-06T00:05:16;20.80;65.70
15983;DHT22;14442;50.196;8.096;2023-08-06T00:07:46;20.80;65.80
15983;DHT22;14442;50.196;8.096;2023-08-06T00:10:13;20.80;65.70
15983;DHT22;14442;50.196;8.096;2023-08-06T00:12:41;20.80;65.70
15983;DHT22;14442;50.196;8.096;2023-08-06T00:15:09;20.80;65.80
15983;DHT22;14442;50.196;8.096;2023-08-06T00:17:36;20.80;65.70
15983;DHT22;14442;50.196;8.096;2023-08-06T00:20:05;20.70;65.70
15983;DHT22;14442;50.196;8.096;2023-08-06T00:22:32;20.80;65.80
15983;DHT22;14442;50.196;8.096;2023-08-06T00:25:00;20.70;65.70
15983;DHT22;14442;50.196;8.096;2023-08-06T00:27:27;20.80;65.80
15983;DHT22;14442;50.196;8.096;2023-08-06T00:29:55;20.80;65.70
15983;DHT22;14442;50.196;8.096;2023-08-06T00:32:22;20.70;65.70
15983;DHT22;14442;50.196;8.096;2023-08-06T00:34:48;20.70;65.70
15983;DHT22;14442;50.196;8.096;2023-08-06T00:37:18;20.70;65.60
15983;DHT22;14442;50.196;8.096;2023-08-06T00:39:45;20.70;65.70
15983;DHT22;14442;50.196;8.096;2023-08-06T00:42:12;20.70;65.70
15983;DHT22;14442;50.196;8.096;2023-08-06T00:44:39;20.70;65.70
15983;DHT22;14442;50.196;8.096;2023-08-06T00:47:08;20.70;65.70
15983;DHT22;14442;50.196;8.096;2023-08-06T00:49:36;20.70;65.70
15983;DHT22;14442;50.196;8.096;2023-08-06T00:52:04;20.70;65.70
15983;DHT22;14442;50.196;8.096;2023-08-06T00:54:31;20.70;65.70
15983;DHT22;14442;50.196;8.096;2023-08-06T00:56:59;20.70;65.70
15983;DHT22;14442;50.196;8.096;2023-08-06T00:59:28;20.70;65.70
15983;DHT22;14442;50.196;8.096;2023-08-06T01:01:55;20.70;65.70
15983;DHT22;14442;50.196;8.096;2023-08-06T01:04:24;20.70;65.70
15983;DHT22;14442;50.196;8.096;2023-08-06T01:06:59;20.70;65.70
15983;DHT22;14442;50.196;8.096;2023-08-06T01:09:37;20.70;65.70
15983;DHT22;14442;50.196;8.096;2023-08-06T01:12:13;20.70;65.70
15983;DHT22;14442;50.196;8.096;2023-08-06T01:14:53;20.70;65.70
15983;DHT22;14442;50.196;8.096;2023-08-06T01:17:20;20.70;66.50
15983;DHT22;14442;50.196;8.096;2023-08-06T01:19:48;20.70;65.70
15983;DHT22;14442;50.196;8.096;2023-08-06T01:22:16;20.70;65.70
15983;DHT22;14442;50.196;8.096;2023-08-06T01:24:46;20.70;65.70
15983;DHT22;14442;50.196;8.096;2023-08-06T01:27:17;20.70;65.70
15983;DHT22;14442;50.196;8.096;2023-08-06T01:29:51;20.70;65.70
15983;DHT22;14442;50.196;8.096;2023-08-06T01:32:21;20.70;65.70
15983;DHT22;14442;50.196;8.096;2023-08-06T01:34:48;20.70;65.80
15983;DHT22;14442;50.196;8.096;2023-08-06T01:37:17;20.70;65.80
15983;DHT22;14442;50.196;8.096;2023-08-06T01:39:44;20.70;65.80
15983;DHT22;14442;50.196;8.096;2023-08-06T01:42:11;20.70;65.70
15983;DHT22;14442;50.196;8.096;2023-08-06T01:44:37;20.70;65.70
15983;DHT22;14442;50.196;8.096;2023-08-06T01:47:05;20.70;65.70
15983;DHT22;14442;50.196;8.096;2023-08-06T01:49:31;20.70;65.70
15983;DHT22;14442;50.196;8.096;2023-08-06T01:51:58;20.70;65.80
15983;DHT22;14442;50.196;8.096;2023-08-06T01:54:27;20.70;65.80
15983;DHT22;14442;50.196;8.096;2023-08-06T01:56:54;20.70;65.80
15983;DHT22;14442;50.196;8.096;2023-08-06T01:59:21;20.70;65.70
15983;DHT22;14442;50.196;8.096;2023-08-06T02:01:47;20.60;65.60
15983;DHT22;14442;50.196;8.096;2023-08-06T02:04:14;20.60;65.70
15983;DHT22;14442;50.196;8.096;2023-08-06T02:06:41;20.60;65.60
15983;DHT22;14442;50.196;8.096;2023-08-06T02:09:08;20.70;65.80
15983;DHT22;14442;50.196;8.096;2023-08-06T02:11:36;20.60;65.70
15983;DHT22;14442;50.196;8.096;2023-08-06T02:14:02;20.60;65.70
15983;DHT22;14442;50.196;8.096;2023-08-06T02:16:29;20.60;65.70
15983;DHT22;14442;50.196;8.096;2023-08-06T02:18:56;20.60;65.70
15983;DHT22;14442;50.196;8.096;2023-08-06T02:21:23;20.60;65.70
15983;DHT22;14442;50.196;8.096;2023-08-06T02:23:50;20.60;65.70
15983;DHT22;14442;50.196;8.096;2023-08-06T02:26:16;20.60;65.80
15983;DHT22;14442;50.196;8.096;2023-08-06T02:28:44;20.60;65.80
15983;DHT22;14442;50.196;8.096;2023-08-06T02:31:11;20.60;65.80
15983;DHT22;14442;50.196;8.096;2023-08-06T02:33:38;20.60;65.80
15983;DHT22;14442;50.196;8.096;2023-08-06T02:36:05;20.60;65.80
15983;DHT22;14442;50.196;8.096;2023-08-06T02:38:32;20.70;65.90
15983;DHT22;14442;50.196;8.096;2023-08-06T02:40:59;20.60;65.80
15983;DHT22;14442;50.196;8.096;2023-08-06T02:43:25;20.60;65.80
15983;DHT22;14442;50.196;8.096;2023-08-06T02:45:56;20.60;65.80
15983;DHT22;14442;50.196;8.096;2023-08-06T02:48:23;20.60;65.80
15983;DHT22;14442;50.196;8.096;2023-08-06T02:50:50;20.60;65.80
15983;DHT22;14442;50.196;8.096;2023-08-06T02:53:17;20.60;65.80
15983;DHT22;14442;50.196;8.096;2023-08-06T02:55:46;20.60;65.80
15983;DHT22;14442;50.196;8.096;2023-08-06T02:58:13;20.60;65.80
15983;DHT22;14442;50.196;8.096;2023-08-06T03:00:40;20.60;65.80
15983;DHT22;14442;50.196;8.096;2023-08-06T03:03:09;20.60;65.80
15983;DHT22;14442;50.196;8.096;2023-08-06T03:05:35;20.60;65.80
15983;DHT22;14442;50.196;8.096;2023-08-06T03:08:02;20.60;65.80
15983;DHT22;14442;50.196;8.096;2023-08-06T03:10:29;20.60;65.80
15983;DHT22;14442;50.196;8.096;2023-08-06T03:12:56;20.60;65.90
15983;DHT22;14442;50.196;8.096;2023-08-06T03:15:23;20.60;65.80
15983;DHT22;14442;50.196;8.096;2023-08-06T03:17:50;20.60;65.90
15983;DHT22;14442;50.196;8.096;2023-08-06T03:20:18;20.60;65.90
15983;DHT22;14442;50.196;8.096;2023-08-06T03:22:45;20.60;65.80
15983;DHT22;14442;50.196;8.096;2023-08-06T03:25:11;20.60;65.80
15983;DHT22;14442;50.196;8.096;2023-08-06T03:27:38;20.60;65.90
15983;DHT22;14442;50.196;8.096;2023-08-06T03:30:06;20.60;65.90
15983;DHT22;14442;50.196;8.096;2023-08-06T03:32:33;20.60;65.90
15983;DHT22;14442;50.196;8.096;2023-08-06T03:35:00;20.60;65.90
15983;DHT22;14442;50.196;8.096;2023-08-06T03:37:28;20.50;65.70
15983;DHT22;14442;50.196;8.096;2023-08-06T03:39:55;20.60;65.80
15983;DHT22;14442;50.196;8.096;2023-08-06T03:42:22;20.60;65.80
15983;DHT22;14442;50.196;8.096;2023-08-06T03:44:48;20.60;65.90
15983;DHT22;14442;50.196;8.096;2023-08-06T03:47:15;20.60;65.80
15983;DHT22;14442;50.196;8.096;2023-08-06T03:49:42;20.60;65.80
15983;DHT22;14442;50.196;8.096;2023-08-06T03:52:09;20.60;65.80
15983;DHT22;14442;50.196;8.096;2023-08-06T03:54:38;20.60;65.80
15983;DHT22;14442;50.196;8.096;2023-08-06T03:57:05;20.60;65.80
15983;DHT22;14442;50.196;8.096;2023-08-06T03:59:32;20.60;65.80
15983;DHT22;14442;50.196;8.096;2023-08-06T04:01:58;20.60;65.90
15983;DHT22;14442;50.196;8.096;2023-08-06T04:04:25;20.60;65.80
15983;DHT22;14442;50.196;8.096;2023-08-06T04:06:52;20.60;65.90
15983;DHT22;14442;50.196;8.096;2023-08-06T04:09:19;20.60;65.90
15983;DHT22;14442;50.196;8.096;2023-08-06T04:11:47;20.60;65.90
15983;DHT22;14442;50.196;8.096;2023-08-06T04:14:14;20.60;65.90
15983;DHT22;14442;50.196;8.096;2023-08-06T04:16:40;20.50;65.80
15983;DHT22;14442;50.196;8.096;2023-08-06T04:19:07;20.50;65.80
15983;DHT22;14442;50.196;8.096;2023-08-06T04:21:34;20.50;65.70
15983;DHT22;14442;50.196;8.096;2023-08-06T04:24:00;20.50;65.70
15983;DHT22;14442;50.196;8.096;2023-08-06T04:26:27;20.50;65.80
15983;DHT22;14442;50.196;8.096;2023-08-06T04:28:55;20.50;65.80
15983;DHT22;14442;50.196;8.096;2023-08-06T04:31:22;20.50;65.80
15983;DHT22;14442;50.196;8.096;2023-08-06T04:33:49;20.50;65.80
15983;DHT22;14442;50.196;8.096;2023-08-06T04:36:16;20.50;65.70
15983;DHT22;14442;50.196;8.096;2023-08-06T04:38:42;20.50;65.80
15983;DHT22;14442;50.196;8.096;2023-08-06T04:41:10;20.50;65.70
15983;DHT22;14442;50.196;8.096;2023-08-06T04:43:37;20.50;65.90
15983;DHT22;14442;50.196;8.096;2023-08-06T04:46:05;20.50;65.90
15983;DHT22;14442;50.196;8.096;2023-08-06T04:48:32;20.50;65.80
15983;DHT22;14442;50.196;8.096;2023-08-06T04:50:59;20.50;65.70
15983;DHT22;14442;50.196;8.096;2023-08-06T04:53:25;20.50;65.70
15983;DHT22;14442;50.196;8.096;2023-08-06T04:55:52;20.50;65.80
15983;DHT22;14442;50.196;8.096;2023-08-06T04:58:19;20.50;65.80
15983;DHT22;14442;50.196;8.096;2023-08-06T05:00:45;20.50;65.70
15983;DHT22;14442;50.196;8.096;2023-08-06T05:03:13;20.50;65.80
15983;DHT22;14442;50.196;8.096;2023-08-06T05:05:40;20.50;65.80
15983;DHT22;14442;50.196;8.096;2023-08-06T05:08:07;20.50;65.80
15983;DHT22;14442;50.196;8.096;2023-08-06T05:10:34;20.50;65.80
15983;DHT22;14442;50.196;8.096;2023-08-06T05:13:00;20.50;65.80
15983;DHT22;14442;50.196;8.096;2023-08-06T05:15:27;20.50;65.90
15983;DHT22;14442;50.196;8.096;2023-08-06T05:17:54;20.50;65.80
15983;DHT22;14442;50.196;8.096;2023-08-06T05:20:22;20.50;65.80
15983;DHT22;14442;50.196;8.096;2023-08-06T05:22:48;20.50;65.80
15983;DHT22;14442;50.196;8.096;2023-08-06T05:25:16;20.50;65.80
15983;DHT22;14442;50.196;8.096;2023-08-06T05:27:43;20.50;65.90
15983;DHT22;14442;50.196;8.096;2023-08-06T05:30:10;20.50;65.80
15983;DHT22;14442;50.196;8.096;2023-08-06T05:32:37;20.50;65.80
15983;DHT22;14442;50.196;8.096;2023-08-06T05:35:04;20.50;65.90
15983;DHT22;14442;50.196;8.096;2023-08-06T05:37:33;20.50;65.80
15983;DHT22;14442;50.196;8.096;2023-08-06T05:39:59;20.50;65.80
15983;DHT22;14442;50.196;8.096;2023-08-06T05:42:27;20.50;65.80
15983;DHT22;14442;50.196;8.096;2023-08-06T05:44:53;20.50;65.80
15983;DHT22;14442;50.196;8.096;2023-08-06T05:47:20;20.50;65.90
15983;DHT22;14442;50.196;8.096;2023-08-06T05:49:47;20.50;65.90
15983;DHT22;14442;50.196;8.096;2023-08-06T05:52:13;20.50;65.80
15983;DHT22;14442;50.196;8.096;2023-08-06T05:54:41;20.50;65.90
15983;DHT22;14442;50.196;8.096;2023-08-06T05:57:08;20.50;65.90
15983;DHT22;14442;50.196;8.096;2023-08-06T05:59:35;20.50;65.90
15983;DHT22;14442;50.196;8.096;2023-08-06T06:02:02;20.50;65.90
15983;DHT22;14442;50.196;8.096;2023-08-06T06:04:28;20.50;65.90
15983;DHT22;14442;50.196;8.096;2023-08-06T06:06:55;20.50;65.90
15983;DHT22;14442;50.196;8.096;2023-08-06T06:09:22;20.50;66.60
15983;DHT22;14442;50.196;8.096;2023-08-06T06:11:50;20.50;65.90
15983;DHT22;14442;50.196;8.096;2023-08-06T06:14:17;20.50;65.90
15983;DHT22;14442;50.196;8.096;2023-08-06T06:16:44;20.50;65.90
15983;DHT22;14442;50.196;8.096;2023-08-06T06:19:11;20.50;65.80
15983;DHT22;14442;50.196;8.096;2023-08-06T06:21:37;20.50;65.80
15983;DHT22;14442;50.196;8.096;2023-08-06T06:24:04;20.50;65.80
15983;DHT22;14442;50.196;8.096;2023-08-06T06:26:31;20.50;65.80
15983;DHT22;14442;50.196;8.096;2023-08-06T06:29:00;20.50;65.80
15983;DHT22;14442;50.196;8.096;2023-08-06T06:31:26;20.50;65.80
15983;DHT22;14442;50.196;8.096;2023-08-06T06:33:53;20.50;65.90
15983;DHT22;14442;50.196;8.096;2023-08-06T06:36:20;20.50;65.90
15983;DHT22;14442;50.196;8.096;2023-08-06T06:38:47;20.50;65.90
15983;DHT22;14442;50.196;8.096;2023-08-06T06:41:14;20.50;65.80
15983;DHT22;14442;50.196;8.096;2023-08-06T06:43:41;20.50;65.70
15983;DHT22;14442;50.196;8.096;2023-08-06T06:46:09;20.50;65.80
15983;DHT22;14442;50.196;8.096;2023-08-06T06:48:36;20.50;65.80
15983;DHT22;14442;50.196;8.096;2023-08-06T06:51:03;20.50;65.80
15983;DHT22;14442;50.196;8.096;2023-08-06T06:53:30;20.50;65.80
15983;DHT22;14442;50.196;8.096;2023-08-06T06:56:00;20.50;65.70
15983;DHT22;14442;50.196;8.096;2023-08-06T06:58:27;20.50;65.80
15983;DHT22;14442;50.196;8.096;2023-08-06T07:00:54;20.50;65.70
15983;DHT22;14442;50.196;8.096;2023-08-06T07:03:22;20.50;65.80
15983;DHT22;14442;50.196;8.096;2023-08-06T07:05:49;20.50;65.80
15983;DHT22;14442;50.196;8.096;2023-08-06T07:08:16;20.50;65.80
15983;DHT22;14442;50.196;8.096;2023-08-06T07:10:43;20.50;65.80
15983;DHT22;14442;50.196;8.096;2023-08-06T07:13:10;20.50;65.70
15983;DHT22;14442;50.196;8.096;2023-08-06T07:15:36;20.50;65.80
15983;DHT22;14442;50.196;8.096;2023-08-06T07:18:03;20.50;65.70
15983;DHT22;14442;50.196;8.096;2023-08-06T07:20:31;20.50;65.80
15983;DHT22;14442;50.196;8.096;2023-08-06T07:23:00;20.50;65.70
15983;DHT22;14442;50.196;8.096;2023-08-06T07:25:26;20.50;65.70
15983;DHT22;14442;50.196;8.096;2023-08-06T07:27:53;20.50;65.70
15983;DHT22;14442;50.196;8.096;2023-08-06T07:30:20;20.50;65.70
15983;DHT22;14442;50.196;8.096;2023-08-06T07:32:46;20.50;65.70
15983;DHT22;14442;50.196;8.096;2023-08-06T07:35:13;20.50;65.70
15983;DHT22;14442;50.196;8.096;2023-08-06T07:37:41;20.50;65.70
15983;DHT22;14442;50.196;8.096;2023-08-06T07:40:09;20.50;65.70
15983;DHT22;14442;50.196;8.096;2023-08-06T07:42:36;20.50;65.70
15983;DHT22;14442;50.196;8.096;2023-08-06T07:45:03;20.50;65.70
15983;DHT22;14442;50.196;8.096;2023-08-06T07:47:30;20.50;65.60
15983;DHT22;14442;50.196;8.096;2023-08-06T07:49:56;20.50;65.70
15983;DHT22;14442;50.196;8.096;2023-08-06T07:52:23;20.50;65.60
15983;DHT22;14442;50.196;8.096;2023-08-06T07:54:51;20.50;65.60
15983;DHT22;14442;50.196;8.096;2023-08-06T07:57:18;20.50;65.60
15983;DHT22;14442;50.196;8.096;2023-08-06T07:59:44;20.50;65.60
15983;DHT22;14442;50.196;8.096;2023-08-06T08:02:11;20.50;65.60
15983;DHT22;14442;50.196;8.096;2023-08-06T08:04:38;20.50;65.60
15983;DHT22;14442;50.196;8.096;2023-08-06T08:07:05;20.50;65.60
15983;DHT22;14442;50.196;8.096;2023-08-06T08:09:31;20.50;65.90
15983;DHT22;14442;50.196;8.096;2023-08-06T08:11:59;20.50;65.80
15983;DHT22;14442;50.196;8.096;2023-08-06T08:14:28;20.50;66.20
15983;DHT22;14442;50.196;8.096;2023-08-06T08:16:58;20.60;66.70
15983;DHT22;14442;50.196;8.096;2023-08-06T08:19:25;20.60;66.50
15983;DHT22;14442;50.196;8.096;2023-08-06T08:21:53;20.60;66.60
15983;DHT22;14442;50.196;8.096;2023-08-06T08:24:20;20.70;66.60
15983;DHT22;14442;50.196;8.096;2023-08-06T08:26:49;20.70;66.60
15983;DHT22;14442;50.196;8.096;2023-08-06T08:29:17;20.70;66.70
15983;DHT22;14442;50.196;8.096;2023-08-06T08:31:44;20.70;66.90
15983;DHT22;14442;50.196;8.096;2023-08-06T08:34:10;20.70;66.80
15983;DHT22;14442;50.196;8.096;2023-08-06T08:36:37;20.70;66.60
15983;DHT22;14442;50.196;8.096;2023-08-06T08:39:04;20.70;66.70
15983;DHT22;14442;50.196;8.096;2023-08-06T08:41:31;20.70;66.60
15983;DHT22;14442;50.196;8.096;2023-08-06T08:43:59;20.70;66.50
15983;DHT22;14442;50.196;8.096;2023-08-06T08:46:29;20.60;66.60
15983;DHT22;14442;50.196;8.096;2023-08-06T08:48:59;20.60;66.60
15983;DHT22;14442;50.196;8.096;2023-08-06T08:51:27;20.70;66.70
15983;DHT22;14442;50.196;8.096;2023-08-06T08:53:54;20.70;67.50
15983;DHT22;14442;50.196;8.096;2023-08-06T08:56:23;20.70;67.00
15983;DHT22;14442;50.196;8.096;2023-08-06T08:58:50;20.70;67.70
15983;DHT22;14442;50.196;8.096;2023-08-06T09:01:18;20.90;66.80
15983;DHT22;14442;50.196;8.096;2023-08-06T09:03:48;21.10;66.20
15983;DHT22;14442;50.196;8.096;2023-08-06T09:06:15;21.30;65.90
15983;DHT22;14442;50.196;8.096;2023-08-06T09:08:49;21.40;65.60
15983;DHT22;14442;50.196;8.096;2023-08-06T09:11:19;21.30;65.50
15983;DHT22;14442;50.196;8.096;2023-08-06T09:13:47;21.20;65.90
15983;DHT22;14442;50.196;8.096;2023-08-06T09:16:14;21.00;65.90
15983;DHT22;14442;50.196;8.096;2023-08-06T09:18:40;21.00;66.20
15983;DHT22;14442;50.196;8.096;2023-08-06T09:21:13;20.90;66.40
15983;DHT22;14442;50.196;8.096;2023-08-06T09:23:40;20.90;67.00
15983;DHT22;14442;50.196;8.096;2023-08-06T09:26:07;20.90;67.20
15983;DHT22;14442;50.196;8.096;2023-08-06T09:28:38;21.00;67.20
15983;DHT22;14442;50.196;8.096;2023-08-06T09:31:05;21.00;67.30
15983;DHT22;14442;50.196;8.096;2023-08-06T09:33:31;20.90;67.10
15983;DHT22;14442;50.196;8.096;2023-08-06T09:36:08;20.90;67.20
15983;DHT22;14442;50.196;8.096;2023-08-06T09:38:38;20.90;67.30
15983;DHT22;14442;50.196;8.096;2023-08-06T09:41:05;20.90;67.70
15983;DHT22;14442;50.196;8.096;2023-08-06T09:43:39;20.90;67.60
15983;DHT22;14442;50.196;8.096;2023-08-06T09:46:11;21.00;67.60
15983;DHT22;14442;50.196;8.096;2023-08-06T09:48:38;20.90;67.50
15983;DHT22;14442;50.196;8.096;2023-08-06T09:51:09;20.90;67.60
15983;DHT22;14442;50.196;8.096;2023-08-06T09:53:37;21.00;67.60
15983;DHT22;14442;50.196;8.096;2023-08-06T09:56:05;20.90;67.40
15983;DHT22;14442;50.196;8.096;2023-08-06T09:58:32;21.00;67.50
15983;DHT22;14442;50.196;8.096;2023-08-06T10:01:00;20.90;67.40
15983;DHT22;14442;50.196;8.096;2023-08-06T10:03:29;21.00;67.40
15983;DHT22;14442;50.196;8.096;2023-08-06T10:05:56;21.00;67.40
15983;DHT22;14442;50.196;8.096;2023-08-06T10:08:24;21.00;67.50
15983;DHT22;14442;50.196;8.096;2023-08-06T10:10:51;21.00;67.40
15983;DHT22;14442;50.196;8.096;2023-08-06T10:13:21;21.00;67.40
15983;DHT22;14442;50.196;8.096;2023-08-06T10:15:48;21.00;67.40
15983;DHT22;14442;50.196;8.096;2023-08-06T10:18:17;21.00;67.40
15983;DHT22;14442;50.196;8.096;2023-08-06T10:20:46;21.00;67.40
15983;DHT22;14442;50.196;8.096;2023-08-06T10:23:13;21.00;67.30
15983;DHT22;14442;50.196;8.096;2023-08-06T10:25:42;21.00;67.30
15983;DHT22;14442;50.196;8.096;2023-08-06T10:28:10;21.00;67.30
15983;DHT22;14442;50.196;8.096;2023-08-06T10:30:43;21.10;67.40
15983;DHT22;14442;50.196;8.096;2023-08-06T10:33:10;21.10;67.40
15983;DHT22;14442;50.196;8.096;2023-08-06T10:35:40;21.10;67.40
15983;DHT22;14442;50.196;8.096;2023-08-06T10:38:10;21.10;67.40
15983;DHT22;14442;50.196;8.096;2023-08-06T10:40:39;21.10;67.40
15983;DHT22;14442;50.196;8.096;2023-08-06T10:43:08;21.10;67.50
15983;DHT22;14442;50.196;8.096;2023-08-06T10:45:50;21.10;67.50
15983;DHT22;14442;50.196;8.096;2023-08-06T10:48:28;21.10;67.50
15983;DHT22;14442;50.196;8.096;2023-08-06T10:50:56;21.10;67.60
15983;DHT22;14442;50.196;8.096;2023-08-06T10:53:22;21.10;67.50
15983;DHT22;14442;50.196;8.096;2023-08-06T10:55:49;21.10;67.70
15983;DHT22;14442;50.196;8.096;2023-08-06T10:58:17;21.00;67.50
15983;DHT22;14442;50.196;8.096;2023-08-06T11:00:44;21.00;67.60
15983;DHT22;14442;50.196;8.096;2023-08-06T11:03:11;21.00;67.50
15983;DHT22;14442;50.196;8.096;2023-08-06T11:05:38;21.00;67.60
15983;DHT22;14442;50.196;8.096;2023-08-06T11:08:05;21.00;67.50
15983;DHT22;14442;50.196;8.096;2023-08-06T11:10:33;21.00;67.40
15983;DHT22;14442;50.196;8.096;2023-08-06T11:13:00;21.00;67.40
15983;DHT22;14442;50.196;8.096;2023-08-06T11:15:30;21.00;67.30
15983;DHT22;14442;50.196;8.096;2023-08-06T11:17:58;21.00;67.40
15983;DHT22;14442;50.196;8.096;2023-08-06T11:20:26;21.00;67.40
15983;DHT22;14442;50.196;8.096;2023-08-06T11:22:53;20.90;67.20
15983;DHT22;14442;50.196;8.096;2023-08-06T11:25:20;20.90;67.20
15983;DHT22;14442;50.196;8.096;2023-08-06T11:27:48;21.00;67.30
15983;DHT22;14442;50.196;8.096;2023-08-06T11:30:14;20.90;67.30
15983;DHT22;14442;50.196;8.096;2023-08-06T11:32:48;20.90;67.30
15983;DHT22;14442;50.196;8.096;2023-08-06T11:35:15;20.90;67.30
15983;DHT22;14442;50.196;8.096;2023-08-06T11:37:44;21.00;67.50
15983;DHT22;14442;50.196;8.096;2023-08-06T11:40:11;21.00;67.40
15983;DHT22;14442;50.196;8.096;2023-08-06T11:42:38;21.00;67.40
15983;DHT22;14442;50.196;8.096;2023-08-06T11:45:05;21.00;67.20
15983;DHT22;14442;50.196;8.096;2023-08-06T11:47:34;21.00;67.30
15983;DHT22;14442;50.196;8.096;2023-08-06T11:50:02;21.00;67.70
15983;DHT22;14442;50.196;8.096;2023-08-06T11:52:30;21.00;67.90
15983;DHT22;14442;50.196;8.096;2023-08-06T11:55:02;21.00;67.70
15983;DHT22;14442;50.196;8.096;2023-08-06T11:57:32;20.90;67.80
15983;DHT22;14442;50.196;8.096;2023-08-06T12:00:02;21.00;68.10
15983;DHT22;14442;50.196;8.096;2023-08-06T12:02:31;21.00;68.10
15983;DHT22;14442;50.196;8.096;2023-08-06T12:05:05;21.00;68.10
15983;DHT22;14442;50.196;8.096;2023-08-06T12:07:37;21.00;68.10
15983;DHT22;14442;50.196;8.096;2023-08-06T12:10:06;20.90;67.70
15983;DHT22;14442;50.196;8.096;2023-08-06T12:12:38;20.80;67.50
15983;DHT22;14442;50.196;8.096;2023-08-06T12:15:06;20.80;67.40
15983;DHT22;14442;50.196;8.096;2023-08-06T12:17:33;20.70;67.40
15983;DHT22;14442;50.196;8.096;2023-08-06T12:20:01;20.70;67.50
15983;DHT22;14442;50.196;8.096;2023-08-06T12:22:31;20.80;67.50
15983;DHT22;14442;50.196;8.096;2023-08-06T12:25:00;20.80;67.70
15983;DHT22;14442;50.196;8.096;2023-08-06T12:27:27;20.80;68.20
15983;DHT22;14442;50.196;8.096;2023-08-06T12:29:54;20.80;67.30
15983;DHT22;14442;50.196;8.096;2023-08-06T12:32:21;20.80;67.20
15983;DHT22;14442;50.196;8.096;2023-08-06T12:34:48;20.90;67.30
15983;DHT22;14442;50.196;8.096;2023-08-06T12:37:15;20.80;67.70
15983;DHT22;14442;50.196;8.096;2023-08-06T12:39:43;20.90;67.20
15983;DHT22;14442;50.196;8.096;2023-08-06T12:42:09;20.80;67.00
15983;DHT22;14442;50.196;8.096;2023-08-06T12:44:36;20.80;67.20
15983;DHT22;14442;50.196;8.096;2023-08-06T12:47:03;20.80;67.30
15983;DHT22;14442;50.196;8.096;2023-08-06T12:49:30;20.80;67.20
15983;DHT22;14442;50.196;8.096;2023-08-06T12:51:58;20.80;67.10
15983;DHT22;14442;50.196;8.096;2023-08-06T12:54:25;20.80;67.00
15983;DHT22;14442;50.196;8.096;2023-08-06T12:56:54;20.80;67.20
15983;DHT22;14442;50.196;8.096;2023-08-06T12:59:22;20.80;67.00
15983;DHT22;14442;50.196;8.096;2023-08-06T13:01:49;20.90;67.00
15983;DHT22;14442;50.196;8.096;2023-08-06T13:04:15;20.80;66.90
15983;DHT22;14442;50.196;8.096;2023-08-06T13:06:42;20.80;66.70
15983;DHT22;14442;50.196;8.096;2023-08-06T13:09:09;20.80;66.70
15983;DHT22;14442;50.196;8.096;2023-08-06T13:11:37;20.80;66.70
15983;DHT22;14442;50.196;8.096;2023-08-06T13:14:06;20.90;66.90
15983;DHT22;14442;50.196;8.096;2023-08-06T13:16:34;20.90;66.80
15983;DHT22;14442;50.196;8.096;2023-08-06T13:19:01;20.90;66.70
15983;DHT22;14442;50.196;8.096;2023-08-06T13:21:32;20.90;66.60
15983;DHT22;14442;50.196;8.096;2023-08-06T13:23:59;20.90;66.70
15983;DHT22;14442;50.196;8.096;2023-08-06T13:26:26;21.00;66.70
15983;DHT22;14442;50.196;8.096;2023-08-06T13:28:53;21.00;66.60
15983;DHT22;14442;50.196;8.096;2023-08-06T13:31:21;21.00;66.60
15983;DHT22;14442;50.196;8.096;2023-08-06T13:33:48;21.00;66.50
15983;DHT22;14442;50.196;8.096;2023-08-06T13:36:15;21.00;66.50
15983;DHT22;14442;50.196;8.096;2023-08-06T13:38:42;21.00;66.50
15983;DHT22;14442;50.196;8.096;2023-08-06T13:41:09;21.00;66.50
15983;DHT22;14442;50.196;8.096;2023-08-06T13:43:35;20.90;66.50
15983;DHT22;14442;50.196;8.096;2023-08-06T13:46:02;20.90;66.40
15983;DHT22;14442;50.196;8.096;2023-08-06T13:48:30;20.90;66.50
15983;DHT22;14442;50.196;8.096;2023-08-06T13:50:57;20.90;66.50
15983;DHT22;14442;50.196;8.096;2023-08-06T13:53:24;20.90;66.60
15983;DHT22;14442;50.196;8.096;2023-08-06T13:55:55;20.90;66.50
15983;DHT22;14442;50.196;8.096;2023-08-06T13:58:22;20.90;66.50
15983;DHT22;14442;50.196;8.096;2023-08-06T14:00:49;21.00;66.50
15983;DHT22;14442;50.196;8.096;2023-08-06T14:03:18;21.00;66.30
15983;DHT22;14442;50.196;8.096;2023-08-06T14:05:46;21.00;66.30
15983;DHT22;14442;50.196;8.096;2023-08-06T14:08:13;21.00;66.40
15983;DHT22;14442;50.196;8.096;2023-08-06T14:10:40;21.00;66.80
15983;DHT22;14442;50.196;8.096;2023-08-06T14:13:07;21.10;66.90
15983;DHT22;14442;50.196;8.096;2023-08-06T14:15:33;21.20;66.90
15983;DHT22;14442;50.196;8.096;2023-08-06T14:18:00;21.10;66.40
15983;DHT22;14442;50.196;8.096;2023-08-06T14:20:27;21.10;66.30
15983;DHT22;14442;50.196;8.096;2023-08-06T14:22:55;21.20;66.50
15983;DHT22;14442;50.196;8.096;2023-08-06T14:25:22;21.20;66.60
15983;DHT22;14442;50.196;8.096;2023-08-06T14:27:49;21.20;66.70
15983;DHT22;14442;50.196;8.096;2023-08-06T14:30:16;21.20;66.70
15983;DHT22;14442;50.196;8.096;2023-08-06T14:32:43;21.20;66.60
15983;DHT22;14442;50.196;8.096;2023-08-06T14:35:09;21.20;66.70
15983;DHT22;14442;50.196;8.096;2023-08-06T14:37:36;21.20;66.70
15983;DHT22;14442;50.196;8.096;2023-08-06T14:40:07;21.20;66.70
15983;DHT22;14442;50.196;8.096;2023-08-06T14:42:34;21.10;66.70
15983;DHT22;14442;50.196;8.096;2023-08-06T14:45:02;21.00;66.70
15983;DHT22;14442;50.196;8.096;2023-08-06T14:47:30;21.00;66.70
15983;DHT22;14442;50.196;8.096;2023-08-06T14:49:57;21.00;66.80
15983;DHT22;14442;50.196;8.096;2023-08-06T14:52:23;20.90;66.90
15983;DHT22;14442;50.196;8.096;2023-08-06T14:54:50;20.90;66.80
15983;DHT22;14442;50.196;8.096;2023-08-06T14:57:22;20.90;66.80
15983;DHT22;14442;50.196;8.096;2023-08-06T14:59:53;20.90;66.70
15983;DHT22;14442;50.196;8.096;2023-08-06T15:02:20;20.90;66.70
15983;DHT22;14442;50.196;8.096;2023-08-06T15:04:47;20.80;66.50
15983;DHT22;14442;50.196;8.096;2023-08-06T15:07:14;20.80;66.50
15983;DHT22;14442;50.196;8.096;2023-08-06T15:09:41;20.80;66.50
15983;DHT22;14442;50.196;8.096;2023-08-06T15:12:08;20.80;66.50
15983;DHT22;14442;50.196;8.096;2023-08-06T15:14:36;20.80;66.40
15983;DHT22;14442;50.196;8.096;2023-08-06T15:17:03;20.80;66.30
15983;DHT22;14442;50.196;8.096;2023-08-06T15:19:30;20.70;66.20
15983;DHT22;14442;50.196;8.096;2023-08-06T15:21:57;20.70;66.10
15983;DHT22;14442;50.196;8.096;2023-08-06T15:24:23;20.80;66.40
15983;DHT22;14442;50.196;8.096;2023-08-06T15:26:50;20.80;66.50
15983;DHT22;14442;50.196;8.096;2023-08-06T15:29:17;20.80;66.70
15983;DHT22;14442;50.196;8.096;2023-08-06T15:31:45;20.80;66.70